| time (UTC) | temp F | wind direction | speed MPH | gust MPH | rain 1hr in | rain 24hr in | rain mn in | humidity % | barometer mb |
| 20260507084535 | 51 | 154 | 0.0 | 3.0 | 0.00 | 0.00 | 0.00 | 68 | 1020.5 |
| 20260507083038 | 51 | 110 | 2.0 | 6.0 | 0.00 | 0.00 | 0.00 | 66 | 1020.5 |
| 20260507081537 | 52 | 180 | 2.0 | 4.0 | 0.00 | 0.00 | 0.00 | 63 | 1020.5 |
| 20260507080030 | 53 | 194 | 3.0 | 6.0 | 0.00 | 0.00 | 0.00 | 60 | 1020.6 |
| 20260507073037 | 56 | 240 | 3.0 | 7.0 | 0.00 | 0.00 | 0.00 | 55 | 1020.4 |
| 20260507071537 | 56 | 284 | 1.0 | 3.0 | 0.00 | 0.00 | 0.00 | 54 | 1020.4 |
| 20260507070034 | 57 | 320 | 1.0 | 4.0 | 0.00 | 0.00 | 0.00 | 53 | 1020.5 |
| 20260507064533 | 56 | 107 | 2.0 | 7.0 | 0.00 | 0.00 | 0.00 | 55 | 1020.5 |
| 20260507063036 | 56 | 96 | 4.0 | 7.0 | 0.00 | 0.00 | 0.00 | 55 | 1020.6 |
| 20260507061535 | 57 | 110 | 2.0 | 9.0 | 0.00 | 0.00 | 0.00 | 54 | 1020.7 |
| 20260507054641 | 59 | 332 | 4.0 | 13.0 | 0.00 | 0.00 | 0.00 | 49 | 1020.6 |
| 20260507053032 | 60 | 345 | 8.0 | 17.0 | 0.00 | 0.00 | 0.00 | 47 | 1020.6 |
| 20260507044530 | 61 | 312 | 9.0 | 17.0 | 0.00 | 0.00 | 0.00 | 42 | 1020.8 |
| 20260507043036 | 61 | 310 | 10.0 | 19.0 | 0.00 | 0.00 | 0.00 | 42 | 1020.8 |
| 20260507041534 | 61 | 310 | 10.0 | 16.0 | 0.00 | 0.00 | 0.00 | 43 | 1020.6 |
| 20260507040045 | 61 | 312 | 11.0 | 21.0 | 0.00 | 0.00 | 0.00 | 45 | 1020.5 |
| 20260507034537 | 62 | 322 | 11.0 | 21.0 | 0.00 | 0.00 | 0.00 | 47 | 1020.5 |
| 20260507031530 | 63 | 315 | 13.0 | 21.0 | 0.00 | 0.00 | 0.00 | 47 | 1020.2 |
| 20260507030107 | 64 | 308 | 14.0 | 24.0 | 0.00 | 0.00 | 0.00 | 46 | 1020.1 |
| 20260507024535 | 64 | 319 | 10.0 | 23.0 | 0.00 | 0.00 | 0.00 | 46 | 1020.1 |
| 20260507023040 | 65 | 325 | 8.0 | 21.0 | 0.00 | 0.00 | 0.00 | 45 | 1020.1 |
| 20260507020031 | 66 | 354 | 6.0 | 13.0 | 0.00 | 0.00 | 0.00 | 43 | 1020.1 |
| 20260507014533 | 68 | 328 | 10.0 | 18.0 | 0.00 | 0.00 | 0.00 | 37 | 1020.0 |
| 20260507013031 | 68 | 323 | 11.0 | 26.0 | 0.00 | 0.00 | 0.00 | 36 | 1020.0 |
| 20260507011535 | 69 | 316 | 10.0 | 20.0 | 0.00 | 0.00 | 0.00 | 37 | 1020.0 |
| 20260507010031 | 69 | 318 | 7.0 | 21.0 | 0.00 | 0.00 | 0.00 | 38 | 1020.0 |
| 20260507003037 | 70 | 312 | 10.0 | 21.0 | 0.00 | 0.00 | 0.00 | 36 | 1019.6 |
| 20260507000153 | 72 | 317 | 12.0 | 23.0 | 0.00 | 0.00 | 0.00 | 33 | 1019.2 |
| 20260506234536 | 73 | 319 | 15.0 | 24.0 | 0.00 | 0.00 | 0.00 | 33 | 1019.2 |
| 20260506233035 | 74 | 318 | 13.0 | 21.0 | 0.00 | 0.00 | 0.00 | 32 | 1019.3 |
| 20260506231530 | 74 | 322 | 13.0 | 25.0 | 0.00 | 0.00 | 0.00 | 32 | 1019.3 |
| 20260506230037 | 74 | 319 | 13.0 | 22.0 | 0.00 | 0.00 | 0.00 | 33 | 1019.3 |
| 20260506224530 | 74 | 314 | 13.0 | 27.0 | 0.00 | 0.00 | 0.00 | 34 | 1019.5 |
| 20260506223029 | 73 | 320 | 13.0 | 23.0 | 0.00 | 0.00 | 0.00 | 35 | 1019.7 |
| 20260506221535 | 75 | 316 | 13.0 | 24.0 | 0.00 | 0.00 | 0.00 | 32 | 1019.6 |
| 20260506220031 | 76 | 304 | 15.0 | 30.0 | 0.00 | 0.00 | 0.00 | 32 | 1019.4 |
| 20260506214534 | 76 | 302 | 14.0 | 25.0 | 0.00 | 0.00 | 0.00 | 32 | 1019.3 |
| 20260506213029 | 76 | 299 | 14.0 | 28.0 | 0.00 | 0.00 | 0.00 | 32 | 1019.3 |
| 20260506210032 | 75 | 325 | 11.0 | 21.0 | 0.00 | 0.00 | 0.00 | 33 | 1019.7 |
| 20260506204532 | 75 | 339 | 10.0 | 21.0 | 0.00 | 0.00 | 0.00 | 34 | 1019.8 |
| 20260506203035 | 76 | 354 | 10.0 | 20.0 | 0.00 | 0.00 | 0.00 | 37 | 1019.9 |
| 20260506200034 | 75 | 7 | 7.0 | 17.0 | 0.00 | 0.00 | 0.00 | 45 | 1020.1 |
| 20260506194532 | 73 | 46 | 5.0 | 13.0 | 0.00 | 0.00 | 0.00 | 48 | 1020.4 |
| 20260506193029 | 74 | 53 | 6.0 | 12.0 | 0.00 | 0.00 | 0.00 | 49 | 1020.4 |
| 20260506191531 | 74 | 51 | 5.0 | 12.0 | 0.00 | 0.00 | 0.00 | 48 | 1020.5 |
| 20260506190036 | 74 | 63 | 5.0 | 11.0 | 0.00 | 0.00 | 0.00 | 49 | 1020.5 |
| 20260506184535 | 74 | 66 | 5.0 | 10.0 | 0.00 | 0.00 | 0.00 | 49 | 1020.4 |
| 20260506183144 | 73 | 80 | 4.0 | 11.0 | 0.00 | 0.00 | 0.00 | 49 | 1020.5 |
| 20260506181534 | 72 | 49 | 5.0 | 12.0 | 0.00 | 0.00 | 0.00 | 49 | 1020.5 |
| 20260506180031 | 72 | 70 | 6.0 | 12.0 | 0.00 | 0.00 | 0.00 | 49 | 1020.4 |
| 20260506174533 | 71 | 87 | 3.0 | 7.0 | 0.00 | 0.00 | 0.00 | 51 | 1020.4 |
| 20260506173029 | 70 | 95 | 2.0 | 7.0 | 0.00 | 0.00 | 0.00 | 53 | 1020.4 |
| 20260506170031 | 67 | 104 | 2.0 | 6.0 | 0.00 | 0.00 | 0.00 | 56 | 1020.8 |
| 20260506164611 | 66 | 82 | 2.0 | 7.0 | 0.00 | 0.00 | 0.00 | 58 | 1021.0 |
| 20260506163035 | 65 | 105 | 2.0 | 7.0 | 0.00 | 0.00 | 0.00 | 60 | 1020.8 |
| 20260506161607 | 64 | 46 | 2.0 | 7.0 | 0.00 | 0.00 | 0.00 | 62 | 1021.0 |
| 20260506160035 | 63 | 66 | 4.0 | 8.0 | 0.00 | 0.00 | 0.00 | 64 | 1020.8 |
| 20260506154535 | 62 | 100 | 4.0 | 8.0 | 0.00 | 0.00 | 0.00 | 66 | 1020.5 |
| 20260506153152 | 61 | 104 | 4.0 | 8.0 | 0.00 | 0.00 | 0.00 | 70 | 1020.7 |
| 20260506143035 | 53 | 115 | 3.0 | 6.0 | 0.00 | 0.00 | 0.00 | 87 | 1020.4 |
| 20260506141532 | 51 | 120 | 3.0 | 6.0 | 0.00 | 0.00 | 0.00 | 90 | 1020.2 |
| 20260506140036 | 50 | 141 | 3.0 | 5.0 | 0.00 | 0.00 | 0.00 | 92 | 1020.1 |
| 20260506134536 | 49 | 119 | 3.0 | 5.0 | 0.00 | 0.00 | 0.00 | 93 | 1020.0 |
| 20260506131534 | 48 | 158 | 2.0 | 5.0 | 0.00 | 0.00 | 0.00 | 93 | 1019.6 |
| 20260506130142 | 48 | 181 | 3.0 | 4.0 | 0.00 | 0.00 | 0.00 | 93 | 1019.4 |
| 20260506124534 | 48 | 180 | 2.0 | 4.0 | 0.00 | 0.00 | 0.00 | 93 | 1019.3 |
| 20260506123033 | 47 | 180 | 2.0 | 3.0 | 0.00 | 0.00 | 0.00 | 92 | 1019.2 |
| 20260506121532 | 47 | 180 | 0.0 | 3.0 | 0.00 | 0.00 | 0.00 | 92 | 1019.2 |
| 20260506120034 | 47 | 180 | 0.0 | 2.0 | 0.00 | 0.00 | 0.00 | 91 | 1019.1 |
| 20260506114544 | 47 | 180 | 0.0 | 0.0 | 0.00 | 0.00 | 0.00 | 91 | 1019.0 |
| 20260506113035 | 48 | 180 | 0.0 | 0.0 | 0.00 | 0.00 | 0.00 | 90 | 1018.9 |
| 20260506111533 | 48 | 180 | 1.0 | 2.0 | 0.00 | 0.00 | 0.00 | 89 | 1018.8 |
| 20260506110035 | 49 | 160 | 2.0 | 3.0 | 0.00 | 0.00 | 0.00 | 89 | 1018.7 |
| 20260506103035 | 49 | 161 | 3.0 | 5.0 | 0.00 | 0.00 | 0.00 | 89 | 1018.5 |
| 20260506101531 | 50 | 175 | 3.0 | 5.0 | 0.00 | 0.00 | 0.00 | 89 | 1018.6 |
| 20260506100057 | 50 | 163 | 3.0 | 4.0 | 0.00 | 0.00 | 0.00 | 89 | 1018.5 |
| 20260506094534 | 49 | 117 | 1.0 | 3.0 | 0.00 | 0.00 | 0.00 | 90 | 1018.5 |
| 20260506093031 | 49 | 90 | 0.0 | 1.0 | 0.00 | 0.00 | 0.00 | 90 | 1018.5 |
| 20260506091535 | 49 | 90 | 1.0 | 2.0 | 0.00 | 0.00 | 0.00 | 90 | 1018.4 |